CheckWX is a tool to help pilots better visualize weather data.  It is not intended as a substitute for an official pre-flight weather briefing.

22:02:45 UTC

KFFT METAR
Capital City Airport
Frankfort, Kentucky, USA
Current

10 mins ago

KFFT 052153Z AUTO 30005KT 10SM SCT075 21/11 A3004 RMK AO2 SLP171 T02060111
Observed
Apr-5 @ 21:53 UTC
Wind
  • 300° at 5 KTS
Visibility
Flight Rules
VFR
Cloud Levels
  • Scattered at 7,500' AGL
Temperature
21°C / 70°F
Dewpoint
11°C / 52°F
Humidity
53%
Altimeter
30.04" Hg
Pressure
1017.32 hPa
Previous

1 hour ago

KFFT 052053Z AUTO 35008KT 10SM BKN042 21/11 A3004 RMK AO2 SLP169 T02110111 57007
Observed
Apr-5 @ 20:53 UTC
Wind
  • 350° at 8 KTS
Visibility
Flight Rules
VFR
Cloud Levels
  • Broken at 4,200' AGL
Temperature
21°C / 70°F
Dewpoint
11°C / 52°F
Humidity
53%
Altimeter
30.04" Hg
Pressure
1017.32 hPa
Previous

2 hours ago

KFFT 051953Z AUTO 33006KT 10SM BKN040 BKN048 OVC070 21/11 A3005 RMK AO2 SLP172 T02110111
Observed
Apr-5 @ 19:53 UTC
Wind
  • 330° at 6 KTS
Visibility
Flight Rules
VFR
Cloud Levels
  • Broken at 4,000' AGL
  • Broken at 4,800' AGL
  • Overcast at 7,000' AGL
Temperature
21°C / 70°F
Dewpoint
11°C / 52°F
Humidity
53%
Altimeter
30.05" Hg
Pressure
1017.62 hPa